sensor_id;sensor_type;location;lat;lon;timestamp;temperature;humidity
18868;DHT22;9563;49.240;9.088;2023-06-10T05:01:11;17.60;99.90
18868;DHT22;9563;49.240;9.088;2023-06-10T05:03:38;17.70;99.90
18868;DHT22;9563;49.240;9.088;2023-06-10T05:06:05;17.70;99.90
18868;DHT22;9563;49.240;9.088;2023-06-10T05:08:31;17.80;99.90
18868;DHT22;9563;49.240;9.088;2023-06-10T05:10:58;17.90;99.90
18868;DHT22;9563;49.240;9.088;2023-06-10T05:13:25;18.00;99.90
18868;DHT22;9563;49.240;9.088;2023-06-10T05:15:52;18.10;99.90
18868;DHT22;9563;49.240;9.088;2023-06-10T05:18:20;18.10;99.90
18868;DHT22;9563;49.240;9.088;2023-06-10T05:20:47;18.10;99.90
18868;DHT22;9563;49.240;9.088;2023-06-10T05:23:14;18.20;99.90
18868;DHT22;9563;49.240;9.088;2023-06-10T05:25:41;18.20;99.90
18868;DHT22;9563;49.240;9.088;2023-06-10T05:28:08;18.20;99.90
18868;DHT22;9563;49.240;9.088;2023-06-10T05:30:35;18.30;99.90
18868;DHT22;9563;49.240;9.088;2023-06-10T05:33:03;18.40;99.90
18868;DHT22;9563;49.240;9.088;2023-06-10T05:35:31;18.40;99.90
18868;DHT22;9563;49.240;9.088;2023-06-10T05:37:58;18.50;99.90
18868;DHT22;9563;49.240;9.088;2023-06-10T05:40:25;18.50;99.90
18868;DHT22;9563;49.240;9.088;2023-06-10T05:42:52;18.60;99.90
18868;DHT22;9563;49.240;9.088;2023-06-10T05:45:19;18.60;99.90
18868;DHT22;9563;49.240;9.088;2023-06-10T05:47:46;18.60;99.90
18868;DHT22;9563;49.240;9.088;2023-06-10T05:50:12;18.70;99.90
18868;DHT22;9563;49.240;9.088;2023-06-10T05:52:40;18.80;99.90
18868;DHT22;9563;49.240;9.088;2023-06-10T05:55:08;18.80;99.90
18868;DHT22;9563;49.240;9.088;2023-06-10T05:57:35;18.80;99.90
18868;DHT22;9563;49.240;9.088;2023-06-10T06:00:03;18.90;99.90
18868;DHT22;9563;49.240;9.088;2023-06-10T06:02:30;18.90;99.90
18868;DHT22;9563;49.240;9.088;2023-06-10T06:04:56;19.00;99.90
18868;DHT22;9563;49.240;9.088;2023-06-10T06:07:23;19.10;99.90
18868;DHT22;9563;49.240;9.088;2023-06-10T06:09:52;19.20;99.90
18868;DHT22;9563;49.240;9.088;2023-06-10T06:12:19;19.30;99.90
18868;DHT22;9563;49.240;9.088;2023-06-10T06:14:46;19.40;99.90
18868;DHT22;9563;49.240;9.088;2023-06-10T06:17:14;19.40;99.90
18868;DHT22;9563;49.240;9.088;2023-06-10T06:19:41;19.60;99.90
18868;DHT22;9563;49.240;9.088;2023-06-10T06:22:08;19.70;99.90
18868;DHT22;9563;49.240;9.088;2023-06-10T06:24:36;19.80;99.90
18868;DHT22;9563;49.240;9.088;2023-06-10T06:27:05;19.90;99.90
18868;DHT22;9563;49.240;9.088;2023-06-10T06:29:32;19.90;99.90
18868;DHT22;9563;49.240;9.088;2023-06-10T06:31:58;20.00;99.90
18868;DHT22;9563;49.240;9.088;2023-06-10T06:34:25;20.00;99.90
18868;DHT22;9563;49.240;9.088;2023-06-10T06:36:52;20.10;99.90
18868;DHT22;9563;49.240;9.088;2023-06-10T06:39:19;20.10;99.90
18868;DHT22;9563;49.240;9.088;2023-06-10T06:41:46;20.20;99.90
18868;DHT22;9563;49.240;9.088;2023-06-10T06:44:14;20.30;99.90
18868;DHT22;9563;49.240;9.088;2023-06-10T06:46:41;20.40;99.90
18868;DHT22;9563;49.240;9.088;2023-06-10T06:49:07;20.60;99.90
18868;DHT22;9563;49.240;9.088;2023-06-10T06:51:34;20.60;99.90
18868;DHT22;9563;49.240;9.088;2023-06-10T06:54:02;20.80;99.90
18868;DHT22;9563;49.240;9.088;2023-06-10T06:56:31;20.90;99.90
18868;DHT22;9563;49.240;9.088;2023-06-10T06:58:58;21.10;99.90
18868;DHT22;9563;49.240;9.088;2023-06-10T07:01:26;21.30;99.90
18868;DHT22;9563;49.240;9.088;2023-06-10T07:03:53;21.40;99.90
18868;DHT22;9563;49.240;9.088;2023-06-10T07:06:20;21.60;99.90
18868;DHT22;9563;49.240;9.088;2023-06-10T07:08:48;21.60;99.90
18868;DHT22;9563;49.240;9.088;2023-06-10T07:11:15;21.70;99.90
18868;DHT22;9563;49.240;9.088;2023-06-10T07:13:43;21.80;99.90
18868;DHT22;9563;49.240;9.088;2023-06-10T07:16:10;21.90;99.90
18868;DHT22;9563;49.240;9.088;2023-06-10T07:18:38;21.90;99.90
18868;DHT22;9563;49.240;9.088;2023-06-10T07:21:05;22.10;99.90
18868;DHT22;9563;49.240;9.088;2023-06-10T07:23:31;22.10;99.90
18868;DHT22;9563;49.240;9.088;2023-06-10T07:25:58;22.10;99.90
18868;DHT22;9563;49.240;9.088;2023-06-10T07:28:25;22.30;99.90
18868;DHT22;9563;49.240;9.088;2023-06-10T07:30:52;22.50;99.90
18868;DHT22;9563;49.240;9.088;2023-06-10T07:33:19;22.50;99.90
18868;DHT22;9563;49.240;9.088;2023-06-10T07:35:49;22.60;99.90
18868;DHT22;9563;49.240;9.088;2023-06-10T07:38:17;22.70;99.90
18868;DHT22;9563;49.240;9.088;2023-06-10T07:40:44;22.90;99.90
18868;DHT22;9563;49.240;9.088;2023-06-10T07:43:11;23.00;99.90
18868;DHT22;9563;49.240;9.088;2023-06-10T07:45:39;23.00;99.90
18868;DHT22;9563;49.240;9.088;2023-06-10T07:48:06;23.20;99.90
18868;DHT22;9563;49.240;9.088;2023-06-10T07:50:33;23.40;99.90
18868;DHT22;9563;49.240;9.088;2023-06-10T07:53:02;23.50;99.90
18868;DHT22;9563;49.240;9.088;2023-06-10T07:55:29;23.70;99.90
18868;DHT22;9563;49.240;9.088;2023-06-10T07:57:56;24.00;99.90
18868;DHT22;9563;49.240;9.088;2023-06-10T08:00:23;24.30;99.90
18868;DHT22;9563;49.240;9.088;2023-06-10T08:02:50;24.50;99.90
18868;DHT22;9563;49.240;9.088;2023-06-10T08:05:17;24.60;99.90
18868;DHT22;9563;49.240;9.088;2023-06-10T08:07:45;24.80;99.90
18868;DHT22;9563;49.240;9.088;2023-06-10T08:10:13;25.00;99.90
18868;DHT22;9563;49.240;9.088;2023-06-10T08:12:40;25.10;99.90
18868;DHT22;9563;49.240;9.088;2023-06-10T08:15:07;25.30;99.90
18868;DHT22;9563;49.240;9.088;2023-06-10T08:17:34;25.40;99.90
18868;DHT22;9563;49.240;9.088;2023-06-10T08:20:01;25.60;99.90
18868;DHT22;9563;49.240;9.088;2023-06-10T08:22:29;25.60;99.90
18868;DHT22;9563;49.240;9.088;2023-06-10T08:24:55;25.80;99.90
18868;DHT22;9563;49.240;9.088;2023-06-10T08:27:24;25.90;99.90
18868;DHT22;9563;49.240;9.088;2023-06-10T08:29:51;26.00;99.90
18868;DHT22;9563;49.240;9.088;2023-06-10T08:32:17;26.10;99.90
18868;DHT22;9563;49.240;9.088;2023-06-10T08:34:44;26.30;99.90
18868;DHT22;9563;49.240;9.088;2023-06-10T08:37:11;26.40;99.90
18868;DHT22;9563;49.240;9.088;2023-06-10T08:39:38;26.40;99.90
18868;DHT22;9563;49.240;9.088;2023-06-10T08:42:11;26.40;99.90
18868;DHT22;9563;49.240;9.088;2023-06-10T08:44:40;26.60;99.90
18868;DHT22;9563;49.240;9.088;2023-06-10T08:47:12;26.70;99.90
18868;DHT22;9563;49.240;9.088;2023-06-10T08:49:43;26.80;99.90
18868;DHT22;9563;49.240;9.088;2023-06-10T08:52:14;26.80;99.90
18868;DHT22;9563;49.240;9.088;2023-06-10T08:54:43;27.10;99.90
18868;DHT22;9563;49.240;9.088;2023-06-10T08:57:12;27.10;99.90
18868;DHT22;9563;49.240;9.088;2023-06-10T08:59:41;27.40;99.90
18868;DHT22;9563;49.240;9.088;2023-06-10T09:02:08;27.60;99.90
18868;DHT22;9563;49.240;9.088;2023-06-10T09:04:36;27.60;99.90
18868;DHT22;9563;49.240;9.088;2023-06-10T09:07:04;27.60;99.90
18868;DHT22;9563;49.240;9.088;2023-06-10T09:09:32;27.50;99.90
18868;DHT22;9563;49.240;9.088;2023-06-10T09:12:01;27.70;99.90
18868;DHT22;9563;49.240;9.088;2023-06-10T09:14:28;27.80;99.90
18868;DHT22;9563;49.240;9.088;2023-06-10T09:16:57;27.90;99.30
18868;DHT22;9563;49.240;9.088;2023-06-10T09:19:25;28.10;99.90
18868;DHT22;9563;49.240;9.088;2023-06-10T09:21:53;28.30;99.20
18868;DHT22;9563;49.240;9.088;2023-06-10T09:24:21;28.20;99.50
18868;DHT22;9563;49.240;9.088;2023-06-10T09:26:48;28.20;97.90
18868;DHT22;9563;49.240;9.088;2023-06-10T09:29:16;28.10;99.10
18868;DHT22;9563;49.240;9.088;2023-06-10T09:31:44;28.30;98.40
18868;DHT22;9563;49.240;9.088;2023-06-10T09:34:14;28.60;98.00
18868;DHT22;9563;49.240;9.088;2023-06-10T09:36:42;28.60;97.80
18868;DHT22;9563;49.240;9.088;2023-06-10T09:39:14;28.80;96.70
18868;DHT22;9563;49.240;9.088;2023-06-10T09:41:43;29.00;96.60
18868;DHT22;9563;49.240;9.088;2023-06-10T09:44:12;28.90;97.00
18868;DHT22;9563;49.240;9.088;2023-06-10T09:46:40;28.80;97.20
18868;DHT22;9563;49.240;9.088;2023-06-10T09:49:07;28.90;97.00
18868;DHT22;9563;49.240;9.088;2023-06-10T09:51:36;29.20;97.60
18868;DHT22;9563;49.240;9.088;2023-06-10T09:54:03;29.30;95.70
18868;DHT22;9563;49.240;9.088;2023-06-10T09:56:33;29.30;95.10
18868;DHT22;9563;49.240;9.088;2023-06-10T09:59:01;29.40;96.00
18868;DHT22;9563;49.240;9.088;2023-06-10T10:01:30;29.40;94.80
18868;DHT22;9563;49.240;9.088;2023-06-10T10:03:59;29.20;92.90
18868;DHT22;9563;49.240;9.088;2023-06-10T10:06:26;29.40;93.00
18868;DHT22;9563;49.240;9.088;2023-06-10T10:08:55;29.50;93.80
18868;DHT22;9563;49.240;9.088;2023-06-10T10:11:23;29.40;93.60
18868;DHT22;9563;49.240;9.088;2023-06-10T10:13:52;29.40;91.90
18868;DHT22;9563;49.240;9.088;2023-06-10T10:16:21;29.20;91.30
18868;DHT22;9563;49.240;9.088;2023-06-10T10:18:52;29.30;91.70
18868;DHT22;9563;49.240;9.088;2023-06-10T10:21:23;29.40;90.00
18868;DHT22;9563;49.240;9.088;2023-06-10T10:23:57;29.40;89.50
18868;DHT22;9563;49.240;9.088;2023-06-10T10:26:26;29.50;87.90
18868;DHT22;9563;49.240;9.088;2023-06-10T10:29:01;29.70;90.10
18868;DHT22;9563;49.240;9.088;2023-06-10T10:31:33;29.60;86.80
18868;DHT22;9563;49.240;9.088;2023-06-10T10:34:04;29.70;88.20
18868;DHT22;9563;49.240;9.088;2023-06-10T10:36:33;29.40;86.20
18868;DHT22;9563;49.240;9.088;2023-06-10T10:39:04;29.50;89.20
18868;DHT22;9563;49.240;9.088;2023-06-10T10:41:32;29.60;87.70
18868;DHT22;9563;49.240;9.088;2023-06-10T10:43:59;29.60;88.30
18868;DHT22;9563;49.240;9.088;2023-06-10T10:46:27;29.70;89.50
18868;DHT22;9563;49.240;9.088;2023-06-10T10:48:54;29.70;88.50
18868;DHT22;9563;49.240;9.088;2023-06-10T10:51:23;29.50;87.70
18868;DHT22;9563;49.240;9.088;2023-06-10T10:54:11;29.70;89.10
18868;DHT22;9563;49.240;9.088;2023-06-10T10:56:39;29.90;86.60
18868;DHT22;9563;49.240;9.088;2023-06-10T10:59:06;29.60;87.40
18868;DHT22;9563;49.240;9.088;2023-06-10T11:01:41;29.60;85.80
18868;DHT22;9563;49.240;9.088;2023-06-10T11:04:11;29.60;89.50
18868;DHT22;9563;49.240;9.088;2023-06-10T11:06:38;29.60;89.30
18868;DHT22;9563;49.240;9.088;2023-06-10T11:09:28;29.60;86.10
18868;DHT22;9563;49.240;9.088;2023-06-10T11:11:57;29.20;85.80
18868;DHT22;9563;49.240;9.088;2023-06-10T11:14:27;29.10;85.50
18868;DHT22;9563;49.240;9.088;2023-06-10T11:16:57;29.30;87.70
18868;DHT22;9563;49.240;9.088;2023-06-10T11:19:33;29.50;88.20
18868;DHT22;9563;49.240;9.088;2023-06-10T11:22:02;29.80;88.70
18868;DHT22;9563;49.240;9.088;2023-06-10T11:24:30;30.00;83.40
18868;DHT22;9563;49.240;9.088;2023-06-10T11:27:15;30.00;83.60
18868;DHT22;9563;49.240;9.088;2023-06-10T11:29:57;30.20;81.20
18868;DHT22;9563;49.240;9.088;2023-06-10T11:32:25;30.40;81.50
18868;DHT22;9563;49.240;9.088;2023-06-10T11:34:56;30.50;83.60
18868;DHT22;9563;49.240;9.088;2023-06-10T11:37:22;30.60;79.90
18868;DHT22;9563;49.240;9.088;2023-06-10T11:39:52;30.60;80.10
18868;DHT22;9563;49.240;9.088;2023-06-10T11:42:20;30.70;81.40
18868;DHT22;9563;49.240;9.088;2023-06-10T11:44:49;30.70;81.90
18868;DHT22;9563;49.240;9.088;2023-06-10T11:47:16;30.50;82.20
18868;DHT22;9563;49.240;9.088;2023-06-10T11:49:43;30.50;81.90
18868;DHT22;9563;49.240;9.088;2023-06-10T11:52:10;30.30;79.50
18868;DHT22;9563;49.240;9.088;2023-06-10T11:54:37;30.40;84.50
18868;DHT22;9563;49.240;9.088;2023-06-10T11:57:06;30.30;82.90
18868;DHT22;9563;49.240;9.088;2023-06-10T11:59:34;30.30;84.10
18868;DHT22;9563;49.240;9.088;2023-06-10T12:02:01;30.40;82.90
18868;DHT22;9563;49.240;9.088;2023-06-10T12:04:38;30.30;83.40
18868;DHT22;9563;49.240;9.088;2023-06-10T12:07:05;30.40;82.60
18868;DHT22;9563;49.240;9.088;2023-06-10T12:09:32;30.60;83.70
18868;DHT22;9563;49.240;9.088;2023-06-10T12:12:02;30.70;82.50
18868;DHT22;9563;49.240;9.088;2023-06-10T12:14:51;30.70;82.50
18868;DHT22;9563;49.240;9.088;2023-06-10T12:17:20;30.80;77.80
18868;DHT22;9563;49.240;9.088;2023-06-10T12:19:50;30.80;79.00
18868;DHT22;9563;49.240;9.088;2023-06-10T12:22:17;30.60;79.50
18868;DHT22;9563;49.240;9.088;2023-06-10T12:24:45;30.30;79.10
18868;DHT22;9563;49.240;9.088;2023-06-10T12:27:12;30.20;79.60
18868;DHT22;9563;49.240;9.088;2023-06-10T12:29:39;30.30;83.00
18868;DHT22;9563;49.240;9.088;2023-06-10T12:32:17;30.40;76.70
18868;DHT22;9563;49.240;9.088;2023-06-10T12:34:45;30.40;77.50
18868;DHT22;9563;49.240;9.088;2023-06-10T12:37:14;30.40;77.80
18868;DHT22;9563;49.240;9.088;2023-06-10T12:39:42;30.40;77.00
18868;DHT22;9563;49.240;9.088;2023-06-10T12:42:09;30.40;77.10
18868;DHT22;9563;49.240;9.088;2023-06-10T12:44:39;30.50;78.80
18868;DHT22;9563;49.240;9.088;2023-06-10T12:47:10;30.50;80.90
18868;DHT22;9563;49.240;9.088;2023-06-10T12:49:38;30.20;77.90
18868;DHT22;9563;49.240;9.088;2023-06-10T12:52:06;29.60;77.70
18868;DHT22;9563;49.240;9.088;2023-06-10T12:54:34;29.70;78.00
18868;DHT22;9563;49.240;9.088;2023-06-10T12:57:02;29.80;79.40
18868;DHT22;9563;49.240;9.088;2023-06-10T12:59:28;30.00;78.80
18868;DHT22;9563;49.240;9.088;2023-06-10T13:01:58;30.00;77.70
18868;DHT22;9563;49.240;9.088;2023-06-10T13:04:25;30.00;80.00
18868;DHT22;9563;49.240;9.088;2023-06-10T13:06:52;30.20;82.20
18868;DHT22;9563;49.240;9.088;2023-06-10T13:09:19;29.90;80.10
18868;DHT22;9563;49.240;9.088;2023-06-10T13:11:47;29.40;78.40
18868;DHT22;9563;49.240;9.088;2023-06-10T13:14:14;29.10;78.10
18868;DHT22;9563;49.240;9.088;2023-06-10T13:16:41;29.20;79.90
18868;DHT22;9563;49.240;9.088;2023-06-10T13:19:10;29.40;82.70
18868;DHT22;9563;49.240;9.088;2023-06-10T13:21:37;29.70;82.20
18868;DHT22;9563;49.240;9.088;2023-06-10T13:24:04;29.60;80.80
18868;DHT22;9563;49.240;9.088;2023-06-10T13:26:31;29.30;80.30
18868;DHT22;9563;49.240;9.088;2023-06-10T13:28:59;28.90;78.00
18868;DHT22;9563;49.240;9.088;2023-06-10T13:31:27;28.90;81.20
18868;DHT22;9563;49.240;9.088;2023-06-10T13:33:53;29.20;81.90
18868;DHT22;9563;49.240;9.088;2023-06-10T13:36:20;29.30;80.00
18868;DHT22;9563;49.240;9.088;2023-06-10T13:38:47;29.60;79.30
18868;DHT22;9563;49.240;9.088;2023-06-10T13:41:14;29.80;79.50
18868;DHT22;9563;49.240;9.088;2023-06-10T13:43:41;30.00;77.90
18868;DHT22;9563;49.240;9.088;2023-06-10T13:46:09;29.90;77.30
18868;DHT22;9563;49.240;9.088;2023-06-10T13:48:36;30.00;78.20
18868;DHT22;9563;49.240;9.088;2023-06-10T13:51:03;30.10;72.50
18868;DHT22;9563;49.240;9.088;2023-06-10T13:53:30;30.10;79.70
18868;DHT22;9563;49.240;9.088;2023-06-10T13:55:57;30.30;76.40
18868;DHT22;9563;49.240;9.088;2023-06-10T13:58:25;30.30;74.60
18868;DHT22;9563;49.240;9.088;2023-06-10T14:00:52;30.20;76.50
18868;DHT22;9563;49.240;9.088;2023-06-10T14:03:20;30.30;78.30
18868;DHT22;9563;49.240;9.088;2023-06-10T14:05:47;30.20;75.90
18868;DHT22;9563;49.240;9.088;2023-06-10T14:08:14;29.90;76.70
18868;DHT22;9563;49.240;9.088;2023-06-10T14:10:41;29.60;75.90
18868;DHT22;9563;49.240;9.088;2023-06-10T14:13:08;29.60;79.10
18868;DHT22;9563;49.240;9.088;2023-06-10T14:15:35;29.60;78.10
18868;DHT22;9563;49.240;9.088;2023-06-10T14:18:02;29.70;74.90
18868;DHT22;9563;49.240;9.088;2023-06-10T14:20:31;29.80;74.40
18868;DHT22;9563;49.240;9.088;2023-06-10T14:22:57;29.90;75.10
18868;DHT22;9563;49.240;9.088;2023-06-10T14:25:27;30.00;77.20
18868;DHT22;9563;49.240;9.088;2023-06-10T14:27:54;30.10;76.70
18868;DHT22;9563;49.240;9.088;2023-06-10T14:30:21;29.90;75.50
18868;DHT22;9563;49.240;9.088;2023-06-10T14:32:47;29.70;76.40
18868;DHT22;9563;49.240;9.088;2023-06-10T14:35:15;29.50;76.10
18868;DHT22;9563;49.240;9.088;2023-06-10T14:37:43;29.50;73.60
18868;DHT22;9563;49.240;9.088;2023-06-10T14:40:10;29.60;74.80
18868;DHT22;9563;49.240;9.088;2023-06-10T14:42:37;29.80;73.50
18868;DHT22;9563;49.240;9.088;2023-06-10T14:45:05;29.90;73.50
18868;DHT22;9563;49.240;9.088;2023-06-10T14:47:33;29.90;75.60
18868;DHT22;9563;49.240;9.088;2023-06-10T14:49:59;30.10;76.00
18868;DHT22;9563;49.240;9.088;2023-06-10T14:52:26;30.10;77.90
18868;DHT22;9563;49.240;9.088;2023-06-10T14:54:55;30.20;74.30
18868;DHT22;9563;49.240;9.088;2023-06-10T14:57:21;30.20;76.00
18868;DHT22;9563;49.240;9.088;2023-06-10T14:59:48;30.20;75.80
18868;DHT22;9563;49.240;9.088;2023-06-10T15:02:15;30.30;76.20
18868;DHT22;9563;49.240;9.088;2023-06-10T15:04:42;30.30;74.70
18868;DHT22;9563;49.240;9.088;2023-06-10T15:07:11;30.20;74.20
18868;DHT22;9563;49.240;9.088;2023-06-10T15:09:40;30.20;75.10
18868;DHT22;9563;49.240;9.088;2023-06-10T15:12:10;30.10;75.50
18868;DHT22;9563;49.240;9.088;2023-06-10T15:14:37;30.10;74.90
18868;DHT22;9563;49.240;9.088;2023-06-10T15:17:04;30.10;75.60
18868;DHT22;9563;49.240;9.088;2023-06-10T15:19:31;30.10;75.00
18868;DHT22;9563;49.240;9.088;2023-06-10T15:21:57;30.00;76.10
18868;DHT22;9563;49.240;9.088;2023-06-10T15:24:24;30.10;74.70
18868;DHT22;9563;49.240;9.088;2023-06-10T15:26:51;30.10;74.50
18868;DHT22;9563;49.240;9.088;2023-06-10T15:29:19;30.10;74.00
18868;DHT22;9563;49.240;9.088;2023-06-10T15:31:46;30.00;74.40
18868;DHT22;9563;49.240;9.088;2023-06-10T15:34:13;29.70;73.30
18868;DHT22;9563;49.240;9.088;2023-06-10T15:36:40;29.70;76.00
18868;DHT22;9563;49.240;9.088;2023-06-10T15:39:07;29.70;72.80
18868;DHT22;9563;49.240;9.088;2023-06-10T15:41:34;29.70;74.90
18868;DHT22;9563;49.240;9.088;2023-06-10T15:44:01;29.80;73.60
18868;DHT22;9563;49.240;9.088;2023-06-10T15:46:30;29.70;75.00
18868;DHT22;9563;49.240;9.088;2023-06-10T15:48:57;29.80;73.10
18868;DHT22;9563;49.240;9.088;2023-06-10T15:51:24;29.80;73.00
18868;DHT22;9563;49.240;9.088;2023-06-10T15:53:51;29.80;75.50
18868;DHT22;9563;49.240;9.088;2023-06-10T15:56:18;29.60;75.60
18868;DHT22;9563;49.240;9.088;2023-06-10T15:58:46;29.60;76.00
18868;DHT22;9563;49.240;9.088;2023-06-10T16:01:13;29.60;76.20
18868;DHT22;9563;49.240;9.088;2023-06-10T16:03:41;29.40;76.50
18868;DHT22;9563;49.240;9.088;2023-06-10T16:06:08;29.50;78.90
18868;DHT22;9563;49.240;9.088;2023-06-10T16:08:35;29.30;78.50
18868;DHT22;9563;49.240;9.088;2023-06-10T16:11:02;29.20;79.20
18868;DHT22;9563;49.240;9.088;2023-06-10T16:13:32;29.20;77.50
18868;DHT22;9563;49.240;9.088;2023-06-10T16:15:59;29.10;77.70
18868;DHT22;9563;49.240;9.088;2023-06-10T16:18:26;29.10;76.00
18868;DHT22;9563;49.240;9.088;2023-06-10T16:20:54;29.00;78.10
18868;DHT22;9563;49.240;9.088;2023-06-10T16:23:21;29.00;79.10
18868;DHT22;9563;49.240;9.088;2023-06-10T16:25:48;29.00;78.00
18868;DHT22;9563;49.240;9.088;2023-06-10T16:28:15;28.90;79.80
18868;DHT22;9563;49.240;9.088;2023-06-10T16:30:42;28.90;78.70
18868;DHT22;9563;49.240;9.088;2023-06-10T16:33:09;28.90;78.80
18868;DHT22;9563;49.240;9.088;2023-06-10T16:35:36;28.80;79.10
18868;DHT22;9563;49.240;9.088;2023-06-10T16:38:04;28.70;78.80
18868;DHT22;9563;49.240;9.088;2023-06-10T16:40:31;28.40;78.80
18868;DHT22;9563;49.240;9.088;2023-06-10T16:42:58;28.30;77.70
18868;DHT22;9563;49.240;9.088;2023-06-10T16:45:25;28.20;78.70
18868;DHT22;9563;49.240;9.088;2023-06-10T16:47:52;28.20;80.40
18868;DHT22;9563;49.240;9.088;2023-06-10T16:50:19;28.10;80.30
18868;DHT22;9563;49.240;9.088;2023-06-10T16:52:46;28.00;80.90
18868;DHT22;9563;49.240;9.088;2023-06-10T16:55:14;28.00;81.70
18868;DHT22;9563;49.240;9.088;2023-06-10T16:57:41;27.80;81.50
18868;DHT22;9563;49.240;9.088;2023-06-10T17:00:09;27.80;82.20
18868;DHT22;9563;49.240;9.088;2023-06-10T17:02:36;27.80;81.60
18868;DHT22;9563;49.240;9.088;2023-06-10T17:05:03;27.80;81.00
18868;DHT22;9563;49.240;9.088;2023-06-10T17:07:30;27.70;81.50
18868;DHT22;9563;49.240;9.088;2023-06-10T17:09:57;27.70;81.90
18868;DHT22;9563;49.240;9.088;2023-06-10T17:12:26;27.60;82.10
18868;DHT22;9563;49.240;9.088;2023-06-10T17:14:53;27.60;82.60
18868;DHT22;9563;49.240;9.088;2023-06-10T17:17:19;27.40;82.50
18868;DHT22;9563;49.240;9.088;2023-06-10T17:19:46;27.40;83.20
18868;DHT22;9563;49.240;9.088;2023-06-10T17:22:13;27.30;82.40
18868;DHT22;9563;49.240;9.088;2023-06-10T17:24:40;27.20;83.10
18868;DHT22;9563;49.240;9.088;2023-06-10T17:27:07;27.10;83.30
18868;DHT22;9563;49.240;9.088;2023-06-10T17:29:35;27.00;83.20
18868;DHT22;9563;49.240;9.088;2023-06-10T17:32:04;27.00;84.20
18868;DHT22;9563;49.240;9.088;2023-06-10T17:34:31;26.90;83.80
18868;DHT22;9563;49.240;9.088;2023-06-10T17:36:58;26.80;83.90
18868;DHT22;9563;49.240;9.088;2023-06-10T17:39:25;26.80;84.00
18868;DHT22;9563;49.240;9.088;2023-06-10T17:41:54;26.80;84.80
18868;DHT22;9563;49.240;9.088;2023-06-10T17:44:22;26.70;84.70
18868;DHT22;9563;49.240;9.088;2023-06-10T17:46:51;26.60;84.60
18868;DHT22;9563;49.240;9.088;2023-06-10T17:49:20;26.50;84.90
18868;DHT22;9563;49.240;9.088;2023-06-10T17:51:48;26.50;85.30
18868;DHT22;9563;49.240;9.088;2023-06-10T17:54:15;26.50;85.80
18868;DHT22;9563;49.240;9.088;2023-06-10T17:56:43;26.50;86.80
18868;DHT22;9563;49.240;9.088;2023-06-10T17:59:10;26.40;86.60
18868;DHT22;9563;49.240;9.088;2023-06-10T18:01:37;26.40;87.20
18868;DHT22;9563;49.240;9.088;2023-06-10T18:04:06;26.30;87.50
18868;DHT22;9563;49.240;9.088;2023-06-10T18:06:36;26.30;89.50
18868;DHT22;9563;49.240;9.088;2023-06-10T18:09:03;26.30;90.20
18868;DHT22;9563;49.240;9.088;2023-06-10T18:11:30;26.30;90.60
18868;DHT22;9563;49.240;9.088;2023-06-10T18:13:57;26.20;91.00
18868;DHT22;9563;49.240;9.088;2023-06-10T18:16:24;26.10;91.40
18868;DHT22;9563;49.240;9.088;2023-06-10T18:18:52;26.00;91.60
18868;DHT22;9563;49.240;9.088;2023-06-10T18:21:20;25.90;92.10
18868;DHT22;9563;49.240;9.088;2023-06-10T18:23:47;25.80;92.40
18868;DHT22;9563;49.240;9.088;2023-06-10T18:26:14;25.80;92.30
18868;DHT22;9563;49.240;9.088;2023-06-10T18:28:41;25.80;92.70
18868;DHT22;9563;49.240;9.088;2023-06-10T18:31:11;25.80;92.60
18868;DHT22;9563;49.240;9.088;2023-06-10T18:33:38;25.80;93.00
18868;DHT22;9563;49.240;9.088;2023-06-10T18:36:05;25.70;93.20
18868;DHT22;9563;49.240;9.088;2023-06-10T18:38:34;25.60;93.30
18868;DHT22;9563;49.240;9.088;2023-06-10T18:41:01;25.60;94.00
18868;DHT22;9563;49.240;9.088;2023-06-10T18:43:31;25.50;94.20
18868;DHT22;9563;49.240;9.088;2023-06-10T18:45:58;25.40;94.60
18868;DHT22;9563;49.240;9.088;2023-06-10T18:48:25;25.40;95.20
18868;DHT22;9563;49.240;9.088;2023-06-10T18:50:52;25.30;95.40
18868;DHT22;9563;49.240;9.088;2023-06-10T18:53:19;25.30;95.80
18868;DHT22;9563;49.240;9.088;2023-06-10T18:55:48;25.30;96.40
18868;DHT22;9563;49.240;9.088;2023-06-10T18:58:14;25.30;96.70
18868;DHT22;9563;49.240;9.088;2023-06-10T19:00:41;25.20;97.00
18868;DHT22;9563;49.240;9.088;2023-06-10T19:03:08;25.10;97.40
18868;DHT22;9563;49.240;9.088;2023-06-10T19:05:35;25.10;98.00
18868;DHT22;9563;49.240;9.088;2023-06-10T19:08:02;25.00;98.60
18868;DHT22;9563;49.240;9.088;2023-06-10T19:10:29;25.00;99.40
18868;DHT22;9563;49.240;9.088;2023-06-10T19:12:57;24.90;99.90
18868;DHT22;9563;49.240;9.088;2023-06-10T19:15:24;24.80;99.90
18868;DHT22;9563;49.240;9.088;2023-06-10T19:17:51;24.80;99.90
18868;DHT22;9563;49.240;9.088;2023-06-10T19:20:18;24.70;99.90
18868;DHT22;9563;49.240;9.088;2023-06-10T19:22:45;24.60;99.90
18868;DHT22;9563;49.240;9.088;2023-06-10T19:25:12;24.60;99.90
18868;DHT22;9563;49.240;9.088;2023-06-10T19:27:39;24.50;99.90
18868;DHT22;9563;49.240;9.088;2023-06-10T19:30:09;24.50;99.90
18868;DHT22;9563;49.240;9.088;2023-06-10T19:32:36;24.50;99.90
18868;DHT22;9563;49.240;9.088;2023-06-10T19:35:03;24.40;99.90
18868;DHT22;9563;49.240;9.088;2023-06-10T19:37:30;24.40;99.90
18868;DHT22;9563;49.240;9.088;2023-06-10T19:39:58;24.30;99.90
18868;DHT22;9563;49.240;9.088;2023-06-10T19:42:25;24.30;99.90
18868;DHT22;9563;49.240;9.088;2023-06-10T19:44:51;24.30;99.90
18868;DHT22;9563;49.240;9.088;2023-06-10T19:47:20;24.30;99.90
18868;DHT22;9563;49.240;9.088;2023-06-10T19:49:46;24.20;99.90
18868;DHT22;9563;49.240;9.088;2023-06-10T19:52:13;24.10;99.90
18868;DHT22;9563;49.240;9.088;2023-06-10T19:54:40;24.10;99.90
18868;DHT22;9563;49.240;9.088;2023-06-10T19:57:08;24.00;99.90
18868;DHT22;9563;49.240;9.088;2023-06-10T19:59:35;23.90;99.90
18868;DHT22;9563;49.240;9.088;2023-06-10T20:02:02;23.90;99.90
18868;DHT22;9563;49.240;9.088;2023-06-10T20:04:30;23.90;99.90
18868;DHT22;9563;49.240;9.088;2023-06-10T20:06:57;23.80;99.90
18868;DHT22;9563;49.240;9.088;2023-06-10T20:09:24;23.80;99.90
18868;DHT22;9563;49.240;9.088;2023-06-10T20:11:51;23.70;99.90
18868;DHT22;9563;49.240;9.088;2023-06-10T20:14:18;23.70;99.90
18868;DHT22;9563;49.240;9.088;2023-06-10T20:16:45;23.60;99.90
18868;DHT22;9563;49.240;9.088;2023-06-10T20:19:12;23.50;99.90
18868;DHT22;9563;49.240;9.088;2023-06-10T20:21:42;23.40;99.90
18868;DHT22;9563;49.240;9.088;2023-06-10T20:24:09;23.40;99.90
18868;DHT22;9563;49.240;9.088;2023-06-10T20:26:36;23.40;99.90
18868;DHT22;9563;49.240;9.088;2023-06-10T20:29:03;23.30;99.90
18868;DHT22;9563;49.240;9.088;2023-06-10T20:31:30;23.20;99.90
18868;DHT22;9563;49.240;9.088;2023-06-10T20:33:57;23.10;99.90
18868;DHT22;9563;49.240;9.088;2023-06-10T20:36:25;23.00;99.90
18868;DHT22;9563;49.240;9.088;2023-06-10T20:38:53;23.00;99.90
18868;DHT22;9563;49.240;9.088;2023-06-10T20:41:20;23.00;99.90
18868;DHT22;9563;49.240;9.088;2023-06-10T20:43:47;23.00;99.90
18868;DHT22;9563;49.240;9.088;2023-06-10T20:46:14;23.00;99.90
18868;DHT22;9563;49.240;9.088;2023-06-10T20:48:41;23.00;99.90